sensor_id;sensor_type;location;lat;lon;timestamp;temperature;humidity
6978;DHT22;3529;53.244;10.414;2022-07-06T00:01:35;13.90;99.90
6978;DHT22;3529;53.244;10.414;2022-07-06T00:04:04;13.90;99.90
6978;DHT22;3529;53.244;10.414;2022-07-06T00:06:29;13.80;99.90
6978;DHT22;3529;53.244;10.414;2022-07-06T00:08:55;13.70;99.90
6978;DHT22;3529;53.244;10.414;2022-07-06T00:11:21;13.70;99.90
6978;DHT22;3529;53.244;10.414;2022-07-06T00:13:47;13.60;99.90
6978;DHT22;3529;53.244;10.414;2022-07-06T00:16:13;13.60;99.90
6978;DHT22;3529;53.244;10.414;2022-07-06T00:18:38;13.60;99.90
6978;DHT22;3529;53.244;10.414;2022-07-06T00:21:04;13.50;99.90
6978;DHT22;3529;53.244;10.414;2022-07-06T00:23:29;13.50;99.90
6978;DHT22;3529;53.244;10.414;2022-07-06T00:25:55;13.40;99.90
6978;DHT22;3529;53.244;10.414;2022-07-06T00:28:21;13.30;99.90
6978;DHT22;3529;53.244;10.414;2022-07-06T00:30:46;13.30;99.90
6978;DHT22;3529;53.244;10.414;2022-07-06T00:33:12;13.30;99.90
6978;DHT22;3529;53.244;10.414;2022-07-06T00:35:37;13.20;99.90
6978;DHT22;3529;53.244;10.414;2022-07-06T00:38:03;13.30;99.90
6978;DHT22;3529;53.244;10.414;2022-07-06T00:40:29;13.20;99.90
6978;DHT22;3529;53.244;10.414;2022-07-06T00:42:56;13.10;99.90
6978;DHT22;3529;53.244;10.414;2022-07-06T00:45:22;13.10;99.90
6978;DHT22;3529;53.244;10.414;2022-07-06T00:47:48;13.10;99.90
6978;DHT22;3529;53.244;10.414;2022-07-06T00:50:16;13.20;99.90
6978;DHT22;3529;53.244;10.414;2022-07-06T00:52:48;13.20;99.90
6978;DHT22;3529;53.244;10.414;2022-07-06T00:55:16;13.20;99.90
6978;DHT22;3529;53.244;10.414;2022-07-06T00:57:43;13.30;99.90
6978;DHT22;3529;53.244;10.414;2022-07-06T01:00:11;13.40;99.90
6978;DHT22;3529;53.244;10.414;2022-07-06T01:02:37;13.40;99.90
6978;DHT22;3529;53.244;10.414;2022-07-06T01:05:08;13.50;99.90
6978;DHT22;3529;53.244;10.414;2022-07-06T01:07:36;13.50;99.90
6978;DHT22;3529;53.244;10.414;2022-07-06T01:10:06;13.50;99.90
6978;DHT22;3529;53.244;10.414;2022-07-06T01:12:33;13.50;99.90
6978;DHT22;3529;53.244;10.414;2022-07-06T01:14:59;13.50;99.90
6978;DHT22;3529;53.244;10.414;2022-07-06T01:17:26;13.50;99.90
6978;DHT22;3529;53.244;10.414;2022-07-06T01:19:51;13.60;99.90
6978;DHT22;3529;53.244;10.414;2022-07-06T01:22:17;13.60;99.90
6978;DHT22;3529;53.244;10.414;2022-07-06T01:24:43;13.60;99.90
6978;DHT22;3529;53.244;10.414;2022-07-06T01:27:09;13.60;99.90
6978;DHT22;3529;53.244;10.414;2022-07-06T01:29:34;13.60;99.90
6978;DHT22;3529;53.244;10.414;2022-07-06T01:32:00;13.60;99.90
6978;DHT22;3529;53.244;10.414;2022-07-06T01:34:27;13.60;99.90
6978;DHT22;3529;53.244;10.414;2022-07-06T01:36:53;14.20;99.90
6978;DHT22;3529;53.244;10.414;2022-07-06T01:39:20;13.50;99.90
6978;DHT22;3529;53.244;10.414;2022-07-06T01:41:46;13.50;99.90
6978;DHT22;3529;53.244;10.414;2022-07-06T01:44:12;13.50;99.90
6978;DHT22;3529;53.244;10.414;2022-07-06T01:46:38;13.50;99.90
6978;DHT22;3529;53.244;10.414;2022-07-06T01:49:04;13.50;99.90
6978;DHT22;3529;53.244;10.414;2022-07-06T01:51:30;13.50;99.90
6978;DHT22;3529;53.244;10.414;2022-07-06T01:53:56;13.50;99.90
6978;DHT22;3529;53.244;10.414;2022-07-06T01:56:22;13.50;99.90
6978;DHT22;3529;53.244;10.414;2022-07-06T01:58:48;13.50;99.90
6978;DHT22;3529;53.244;10.414;2022-07-06T02:01:16;13.50;99.90
6978;DHT22;3529;53.244;10.414;2022-07-06T02:03:42;13.50;99.90
6978;DHT22;3529;53.244;10.414;2022-07-06T02:06:08;13.50;99.90
6978;DHT22;3529;53.244;10.414;2022-07-06T02:08:34;13.50;99.90
6978;DHT22;3529;53.244;10.414;2022-07-06T02:11:01;13.40;99.90
6978;DHT22;3529;53.244;10.414;2022-07-06T02:13:27;13.40;99.90
6978;DHT22;3529;53.244;10.414;2022-07-06T02:15:53;13.40;99.90
6978;DHT22;3529;53.244;10.414;2022-07-06T02:18:18;13.30;99.90
6978;DHT22;3529;53.244;10.414;2022-07-06T02:20:45;13.40;99.90
6978;DHT22;3529;53.244;10.414;2022-07-06T02:23:11;13.50;99.90
6978;DHT22;3529;53.244;10.414;2022-07-06T02:25:37;13.60;99.90
6978;DHT22;3529;53.244;10.414;2022-07-06T02:28:02;13.60;99.90
6978;DHT22;3529;53.244;10.414;2022-07-06T02:30:28;13.60;99.90
6978;DHT22;3529;53.244;10.414;2022-07-06T02:32:54;13.70;99.90
6978;DHT22;3529;53.244;10.414;2022-07-06T02:35:19;13.60;99.90
6978;DHT22;3529;53.244;10.414;2022-07-06T02:37:45;13.70;99.90
6978;DHT22;3529;53.244;10.414;2022-07-06T02:40:11;13.70;99.90
6978;DHT22;3529;53.244;10.414;2022-07-06T02:42:36;13.70;99.90
6978;DHT22;3529;53.244;10.414;2022-07-06T02:45:04;13.70;99.90
6978;DHT22;3529;53.244;10.414;2022-07-06T02:47:30;13.70;99.90
6978;DHT22;3529;53.244;10.414;2022-07-06T02:49:56;13.70;99.90
6978;DHT22;3529;53.244;10.414;2022-07-06T02:52:21;13.70;99.90
6978;DHT22;3529;53.244;10.414;2022-07-06T02:54:48;13.70;99.90
6978;DHT22;3529;53.244;10.414;2022-07-06T02:57:14;13.70;99.90
6978;DHT22;3529;53.244;10.414;2022-07-06T02:59:40;13.60;99.90
6978;DHT22;3529;53.244;10.414;2022-07-06T03:02:07;13.60;99.90
6978;DHT22;3529;53.244;10.414;2022-07-06T03:04:33;13.60;99.90
6978;DHT22;3529;53.244;10.414;2022-07-06T03:06:59;13.70;99.90
6978;DHT22;3529;53.244;10.414;2022-07-06T03:09:25;13.70;99.90
6978;DHT22;3529;53.244;10.414;2022-07-06T03:11:51;13.70;99.90
6978;DHT22;3529;53.244;10.414;2022-07-06T03:14:16;13.70;99.90
6978;DHT22;3529;53.244;10.414;2022-07-06T03:16:42;13.70;99.90
6978;DHT22;3529;53.244;10.414;2022-07-06T03:19:08;13.70;99.90
6978;DHT22;3529;53.244;10.414;2022-07-06T03:21:33;13.70;99.90
6978;DHT22;3529;53.244;10.414;2022-07-06T03:23:59;13.70;99.90
6978;DHT22;3529;53.244;10.414;2022-07-06T03:26:25;13.70;99.90
6978;DHT22;3529;53.244;10.414;2022-07-06T03:28:51;13.70;99.90
6978;DHT22;3529;53.244;10.414;2022-07-06T03:31:17;13.70;99.90
6978;DHT22;3529;53.244;10.414;2022-07-06T03:33:42;13.70;99.90
6978;DHT22;3529;53.244;10.414;2022-07-06T03:36:08;13.70;99.90
6978;DHT22;3529;53.244;10.414;2022-07-06T03:38:35;13.70;99.90
6978;DHT22;3529;53.244;10.414;2022-07-06T03:41:01;13.80;99.90
6978;DHT22;3529;53.244;10.414;2022-07-06T03:43:27;13.80;99.90
6978;DHT22;3529;53.244;10.414;2022-07-06T03:45:52;13.80;99.90
6978;DHT22;3529;53.244;10.414;2022-07-06T03:48:18;13.90;99.90
6978;DHT22;3529;53.244;10.414;2022-07-06T03:50:43;13.80;99.90
6978;DHT22;3529;53.244;10.414;2022-07-06T03:53:09;13.90;99.90
6978;DHT22;3529;53.244;10.414;2022-07-06T03:55:35;13.90;99.90
6978;DHT22;3529;53.244;10.414;2022-07-06T03:58:01;13.90;99.90
6978;DHT22;3529;53.244;10.414;2022-07-06T04:00:27;14.00;99.90
6978;DHT22;3529;53.244;10.414;2022-07-06T04:02:53;14.00;99.90
6978;DHT22;3529;53.244;10.414;2022-07-06T04:05:18;14.00;99.90
6978;DHT22;3529;53.244;10.414;2022-07-06T04:07:47;14.00;99.90
6978;DHT22;3529;53.244;10.414;2022-07-06T04:10:14;14.00;99.90
6978;DHT22;3529;53.244;10.414;2022-07-06T04:12:40;14.10;99.90
6978;DHT22;3529;53.244;10.414;2022-07-06T04:15:07;14.10;99.90
6978;DHT22;3529;53.244;10.414;2022-07-06T04:17:32;14.10;99.90
6978;DHT22;3529;53.244;10.414;2022-07-06T04:20:17;14.20;99.90
6978;DHT22;3529;53.244;10.414;2022-07-06T04:22:42;15.00;99.90
6978;DHT22;3529;53.244;10.414;2022-07-06T04:25:08;14.30;99.90
6978;DHT22;3529;53.244;10.414;2022-07-06T04:27:34;14.30;99.90
6978;DHT22;3529;53.244;10.414;2022-07-06T04:30:00;14.40;99.90
6978;DHT22;3529;53.244;10.414;2022-07-06T04:32:25;14.40;99.90
6978;DHT22;3529;53.244;10.414;2022-07-06T04:34:51;14.50;99.90
6978;DHT22;3529;53.244;10.414;2022-07-06T04:37:17;14.50;99.90
6978;DHT22;3529;53.244;10.414;2022-07-06T04:39:42;14.50;99.90
6978;DHT22;3529;53.244;10.414;2022-07-06T04:42:08;14.60;99.90
6978;DHT22;3529;53.244;10.414;2022-07-06T04:44:33;14.60;99.90
6978;DHT22;3529;53.244;10.414;2022-07-06T04:46:59;14.60;99.90
6978;DHT22;3529;53.244;10.414;2022-07-06T04:49:25;14.70;99.90
6978;DHT22;3529;53.244;10.414;2022-07-06T04:51:50;14.60;99.90
6978;DHT22;3529;53.244;10.414;2022-07-06T04:54:16;14.70;99.90
6978;DHT22;3529;53.244;10.414;2022-07-06T04:56:42;14.80;99.90
6978;DHT22;3529;53.244;10.414;2022-07-06T04:59:07;14.80;99.90
6978;DHT22;3529;53.244;10.414;2022-07-06T05:01:33;14.80;99.90
6978;DHT22;3529;53.244;10.414;2022-07-06T05:03:59;14.80;99.90
6978;DHT22;3529;53.244;10.414;2022-07-06T05:06:25;14.90;99.90
6978;DHT22;3529;53.244;10.414;2022-07-06T05:08:50;15.00;99.90
6978;DHT22;3529;53.244;10.414;2022-07-06T05:11:17;15.00;99.90
6978;DHT22;3529;53.244;10.414;2022-07-06T05:13:42;15.00;99.90
6978;DHT22;3529;53.244;10.414;2022-07-06T05:16:08;15.10;99.90
6978;DHT22;3529;53.244;10.414;2022-07-06T05:18:34;15.10;99.90
6978;DHT22;3529;53.244;10.414;2022-07-06T05:21:00;15.20;99.90
6978;DHT22;3529;53.244;10.414;2022-07-06T05:23:26;15.20;99.90
6978;DHT22;3529;53.244;10.414;2022-07-06T05:25:52;15.30;99.90
6978;DHT22;3529;53.244;10.414;2022-07-06T05:28:17;15.30;99.90
6978;DHT22;3529;53.244;10.414;2022-07-06T05:30:43;15.40;99.90
6978;DHT22;3529;53.244;10.414;2022-07-06T05:33:09;15.40;99.90
6978;DHT22;3529;53.244;10.414;2022-07-06T05:35:34;15.40;99.90
6978;DHT22;3529;53.244;10.414;2022-07-06T05:38:00;15.50;99.90
6978;DHT22;3529;53.244;10.414;2022-07-06T05:40:25;15.50;99.90
6978;DHT22;3529;53.244;10.414;2022-07-06T05:42:51;15.60;99.90
6978;DHT22;3529;53.244;10.414;2022-07-06T05:45:17;15.70;99.90
6978;DHT22;3529;53.244;10.414;2022-07-06T05:47:42;15.80;99.90
6978;DHT22;3529;53.244;10.414;2022-07-06T05:50:27;15.90;99.90
6978;DHT22;3529;53.244;10.414;2022-07-06T05:53:01;15.90;99.90
6978;DHT22;3529;53.244;10.414;2022-07-06T05:55:27;15.90;99.90
6978;DHT22;3529;53.244;10.414;2022-07-06T05:57:53;15.90;99.90
6978;DHT22;3529;53.244;10.414;2022-07-06T06:00:23;15.90;99.90
6978;DHT22;3529;53.244;10.414;2022-07-06T06:02:49;15.90;99.90
6978;DHT22;3529;53.244;10.414;2022-07-06T06:05:15;16.00;99.90
6978;DHT22;3529;53.244;10.414;2022-07-06T06:07:41;16.00;99.90
6978;DHT22;3529;53.244;10.414;2022-07-06T06:10:11;16.00;99.90
6978;DHT22;3529;53.244;10.414;2022-07-06T06:12:38;16.10;99.90
6978;DHT22;3529;53.244;10.414;2022-07-06T06:15:04;16.20;99.90
6978;DHT22;3529;53.244;10.414;2022-07-06T06:17:30;16.20;99.90
6978;DHT22;3529;53.244;10.414;2022-07-06T06:19:56;16.20;99.90
6978;DHT22;3529;53.244;10.414;2022-07-06T06:22:21;16.30;99.90
6978;DHT22;3529;53.244;10.414;2022-07-06T06:24:47;16.30;99.90
6978;DHT22;3529;53.244;10.414;2022-07-06T06:27:12;16.50;99.90
6978;DHT22;3529;53.244;10.414;2022-07-06T06:29:38;16.40;99.90
6978;DHT22;3529;53.244;10.414;2022-07-06T06:32:04;16.50;99.90
6978;DHT22;3529;53.244;10.414;2022-07-06T06:34:31;16.60;99.90
6978;DHT22;3529;53.244;10.414;2022-07-06T06:36:57;16.70;99.90
6978;DHT22;3529;53.244;10.414;2022-07-06T06:39:23;16.80;99.90
6978;DHT22;3529;53.244;10.414;2022-07-06T06:41:48;16.80;99.90
6978;DHT22;3529;53.244;10.414;2022-07-06T06:44:14;16.80;99.90
6978;DHT22;3529;53.244;10.414;2022-07-06T06:46:41;16.80;99.90
6978;DHT22;3529;53.244;10.414;2022-07-06T06:49:07;16.80;99.90
6978;DHT22;3529;53.244;10.414;2022-07-06T06:51:33;16.80;99.90
6978;DHT22;3529;53.244;10.414;2022-07-06T06:53:59;16.80;99.90
6978;DHT22;3529;53.244;10.414;2022-07-06T06:56:24;16.90;99.90
6978;DHT22;3529;53.244;10.414;2022-07-06T06:58:50;16.90;99.90
6978;DHT22;3529;53.244;10.414;2022-07-06T07:01:15;17.20;99.90
6978;DHT22;3529;53.244;10.414;2022-07-06T07:03:41;17.30;99.90
6978;DHT22;3529;53.244;10.414;2022-07-06T07:06:07;17.40;99.90
6978;DHT22;3529;53.244;10.414;2022-07-06T07:08:32;17.60;99.90
6978;DHT22;3529;53.244;10.414;2022-07-06T07:10:58;17.70;99.90
6978;DHT22;3529;53.244;10.414;2022-07-06T07:13:24;17.80;99.90
6978;DHT22;3529;53.244;10.414;2022-07-06T07:15:50;18.00;99.90
6978;DHT22;3529;53.244;10.414;2022-07-06T07:18:15;18.10;99.90
6978;DHT22;3529;53.244;10.414;2022-07-06T07:20:41;18.10;99.90
6978;DHT22;3529;53.244;10.414;2022-07-06T07:23:06;18.00;99.90
6978;DHT22;3529;53.244;10.414;2022-07-06T07:25:32;18.10;99.90
6978;DHT22;3529;53.244;10.414;2022-07-06T07:27:58;18.00;99.90
6978;DHT22;3529;53.244;10.414;2022-07-06T07:30:24;18.00;99.90
6978;DHT22;3529;53.244;10.414;2022-07-06T07:32:49;17.90;99.90
6978;DHT22;3529;53.244;10.414;2022-07-06T07:35:15;17.90;99.90
6978;DHT22;3529;53.244;10.414;2022-07-06T07:37:41;17.80;99.90
6978;DHT22;3529;53.244;10.414;2022-07-06T07:40:07;17.80;99.90
6978;DHT22;3529;53.244;10.414;2022-07-06T07:42:33;18.00;99.90
6978;DHT22;3529;53.244;10.414;2022-07-06T07:44:58;18.10;99.90
6978;DHT22;3529;53.244;10.414;2022-07-06T07:47:24;18.10;99.90
6978;DHT22;3529;53.244;10.414;2022-07-06T07:49:49;18.20;99.90
6978;DHT22;3529;53.244;10.414;2022-07-06T07:52:15;18.20;99.90
6978;DHT22;3529;53.244;10.414;2022-07-06T07:54:41;18.30;99.90
6978;DHT22;3529;53.244;10.414;2022-07-06T07:57:07;18.30;99.90
6978;DHT22;3529;53.244;10.414;2022-07-06T07:59:32;18.40;99.90
6978;DHT22;3529;53.244;10.414;2022-07-06T08:01:58;18.50;99.90
6978;DHT22;3529;53.244;10.414;2022-07-06T08:04:24;18.70;99.90
6978;DHT22;3529;53.244;10.414;2022-07-06T08:06:49;18.80;99.90
6978;DHT22;3529;53.244;10.414;2022-07-06T08:09:16;18.90;99.90
6978;DHT22;3529;53.244;10.414;2022-07-06T08:11:42;19.00;99.90
6978;DHT22;3529;53.244;10.414;2022-07-06T08:14:08;19.10;99.90
6978;DHT22;3529;53.244;10.414;2022-07-06T08:16:33;19.20;99.90
6978;DHT22;3529;53.244;10.414;2022-07-06T08:18:59;19.30;99.90
6978;DHT22;3529;53.244;10.414;2022-07-06T08:21:25;19.50;99.90
6978;DHT22;3529;53.244;10.414;2022-07-06T08:23:51;19.90;99.90
6978;DHT22;3529;53.244;10.414;2022-07-06T08:26:16;20.10;99.90
6978;DHT22;3529;53.244;10.414;2022-07-06T08:28:42;20.50;99.90
6978;DHT22;3529;53.244;10.414;2022-07-06T08:31:08;20.60;99.90
6978;DHT22;3529;53.244;10.414;2022-07-06T08:33:34;20.40;99.90
6978;DHT22;3529;53.244;10.414;2022-07-06T08:35:59;20.10;99.90
6978;DHT22;3529;53.244;10.414;2022-07-06T08:38:25;19.80;99.90
6978;DHT22;3529;53.244;10.414;2022-07-06T08:40:51;19.70;99.90
6978;DHT22;3529;53.244;10.414;2022-07-06T08:43:17;19.40;99.90
6978;DHT22;3529;53.244;10.414;2022-07-06T08:45:42;19.20;99.90
6978;DHT22;3529;53.244;10.414;2022-07-06T08:48:10;18.90;99.90
6978;DHT22;3529;53.244;10.414;2022-07-06T08:50:37;18.60;99.90
6978;DHT22;3529;53.244;10.414;2022-07-06T08:53:04;18.50;99.90
6978;DHT22;3529;53.244;10.414;2022-07-06T08:55:31;18.40;99.90
6978;DHT22;3529;53.244;10.414;2022-07-06T08:57:58;18.40;99.90
6978;DHT22;3529;53.244;10.414;2022-07-06T09:00:26;18.40;99.90
6978;DHT22;3529;53.244;10.414;2022-07-06T09:02:52;18.20;99.90
6978;DHT22;3529;53.244;10.414;2022-07-06T09:05:22;18.10;99.90
6978;DHT22;3529;53.244;10.414;2022-07-06T09:07:52;17.90;99.90
6978;DHT22;3529;53.244;10.414;2022-07-06T09:10:20;17.70;99.90
6978;DHT22;3529;53.244;10.414;2022-07-06T09:12:46;17.50;99.90
6978;DHT22;3529;53.244;10.414;2022-07-06T09:15:12;17.30;99.90
6978;DHT22;3529;53.244;10.414;2022-07-06T09:17:40;17.30;99.90
6978;DHT22;3529;53.244;10.414;2022-07-06T09:20:07;17.30;99.90
6978;DHT22;3529;53.244;10.414;2022-07-06T09:22:34;17.30;99.90
6978;DHT22;3529;53.244;10.414;2022-07-06T09:25:10;17.30;99.90
6978;DHT22;3529;53.244;10.414;2022-07-06T09:27:47;17.40;99.90
6978;DHT22;3529;53.244;10.414;2022-07-06T09:30:14;17.40;99.90
6978;DHT22;3529;53.244;10.414;2022-07-06T09:32:42;17.40;99.90
6978;DHT22;3529;53.244;10.414;2022-07-06T09:37:47;17.20;99.90
6978;DHT22;3529;53.244;10.414;2022-07-06T09:40:19;17.00;99.90
6978;DHT22;3529;53.244;10.414;2022-07-06T09:42:45;16.70;99.90
6978;DHT22;3529;53.244;10.414;2022-07-06T09:45:11;16.40;99.90
6978;DHT22;3529;53.244;10.414;2022-07-06T09:47:37;16.10;99.90
6978;DHT22;3529;53.244;10.414;2022-07-06T09:50:05;16.00;99.90
6978;DHT22;3529;53.244;10.414;2022-07-06T09:52:35;15.90;99.90
6978;DHT22;3529;53.244;10.414;2022-07-06T09:55:00;15.90;99.90
6978;DHT22;3529;53.244;10.414;2022-07-06T09:57:30;15.90;99.90
6978;DHT22;3529;53.244;10.414;2022-07-06T09:59:58;15.90;99.90
6978;DHT22;3529;53.244;10.414;2022-07-06T10:02:24;15.90;99.90
6978;DHT22;3529;53.244;10.414;2022-07-06T10:04:54;16.10;99.90
6978;DHT22;3529;53.244;10.414;2022-07-06T10:07:23;16.40;99.90
6978;DHT22;3529;53.244;10.414;2022-07-06T10:09:50;16.60;99.90
6978;DHT22;3529;53.244;10.414;2022-07-06T10:12:17;16.90;99.90
6978;DHT22;3529;53.244;10.414;2022-07-06T10:14:44;17.20;99.90
6978;DHT22;3529;53.244;10.414;2022-07-06T10:17:11;17.50;99.90
6978;DHT22;3529;53.244;10.414;2022-07-06T10:19:37;17.60;99.90
6978;DHT22;3529;53.244;10.414;2022-07-06T10:22:04;17.90;99.90
6978;DHT22;3529;53.244;10.414;2022-07-06T10:24:30;18.00;99.90
6978;DHT22;3529;53.244;10.414;2022-07-06T10:26:59;18.20;99.90
6978;DHT22;3529;53.244;10.414;2022-07-06T10:29:25;18.30;99.90
6978;DHT22;3529;53.244;10.414;2022-07-06T10:31:50;18.30;99.90
6978;DHT22;3529;53.244;10.414;2022-07-06T10:34:18;18.50;99.90
6978;DHT22;3529;53.244;10.414;2022-07-06T10:36:49;18.40;99.90
6978;DHT22;3529;53.244;10.414;2022-07-06T10:39:16;18.50;99.90
6978;DHT22;3529;53.244;10.414;2022-07-06T10:42:41;18.50;99.90
6978;DHT22;3529;53.244;10.414;2022-07-06T10:45:10;18.40;99.90
6978;DHT22;3529;53.244;10.414;2022-07-06T10:47:36;18.20;99.90
6978;DHT22;3529;53.244;10.414;2022-07-06T10:50:03;18.20;99.90
6978;DHT22;3529;53.244;10.414;2022-07-06T10:52:51;18.10;99.90
6978;DHT22;3529;53.244;10.414;2022-07-06T10:55:38;17.90;99.90
6978;DHT22;3529;53.244;10.414;2022-07-06T10:58:05;17.60;99.90
6978;DHT22;3529;53.244;10.414;2022-07-06T11:00:52;17.50;99.90
6978;DHT22;3529;53.244;10.414;2022-07-06T11:06:23;17.10;99.90
6978;DHT22;3529;53.244;10.414;2022-07-06T11:09:00;17.00;99.90
6978;DHT22;3529;53.244;10.414;2022-07-06T11:14:10;16.80;99.90
6978;DHT22;3529;53.244;10.414;2022-07-06T11:16:37;16.90;99.90
6978;DHT22;3529;53.244;10.414;2022-07-06T11:19:13;17.00;99.90
6978;DHT22;3529;53.244;10.414;2022-07-06T11:24:31;17.40;99.90
6978;DHT22;3529;53.244;10.414;2022-07-06T11:26:59;17.80;99.90
6978;DHT22;3529;53.244;10.414;2022-07-06T11:29:26;18.20;99.90
6978;DHT22;3529;53.244;10.414;2022-07-06T11:31:55;18.50;99.90
6978;DHT22;3529;53.244;10.414;2022-07-06T11:34:22;18.90;99.90
6978;DHT22;3529;53.244;10.414;2022-07-06T11:36:49;19.30;99.90
6978;DHT22;3529;53.244;10.414;2022-07-06T11:39:19;19.60;99.90
6978;DHT22;3529;53.244;10.414;2022-07-06T11:41:44;19.70;99.90
6978;DHT22;3529;53.244;10.414;2022-07-06T11:44:10;19.90;99.90
6978;DHT22;3529;53.244;10.414;2022-07-06T11:46:36;19.90;99.90
6978;DHT22;3529;53.244;10.414;2022-07-06T11:51:30;19.70;99.90
6978;DHT22;3529;53.244;10.414;2022-07-06T11:53:58;19.60;99.90
6978;DHT22;3529;53.244;10.414;2022-07-06T11:56:28;19.50;99.90
6978;DHT22;3529;53.244;10.414;2022-07-06T11:58:56;19.40;99.90
6978;DHT22;3529;53.244;10.414;2022-07-06T12:01:23;19.40;99.90
6978;DHT22;3529;53.244;10.414;2022-07-06T12:03:49;19.40;99.90
6978;DHT22;3529;53.244;10.414;2022-07-06T12:06:20;19.20;99.90
6978;DHT22;3529;53.244;10.414;2022-07-06T12:11:21;19.30;99.90
6978;DHT22;3529;53.244;10.414;2022-07-06T12:13:47;19.40;99.90
6978;DHT22;3529;53.244;10.414;2022-07-06T12:16:14;19.30;99.90
6978;DHT22;3529;53.244;10.414;2022-07-06T12:18:44;19.40;99.90
6978;DHT22;3529;53.244;10.414;2022-07-06T12:21:12;19.40;99.90
6978;DHT22;3529;53.244;10.414;2022-07-06T12:23:43;19.50;99.90
6978;DHT22;3529;53.244;10.414;2022-07-06T12:26:10;19.50;99.90
6978;DHT22;3529;53.244;10.414;2022-07-06T12:28:36;19.50;99.90
6978;DHT22;3529;53.244;10.414;2022-07-06T12:31:02;19.50;99.90
6978;DHT22;3529;53.244;10.414;2022-07-06T12:33:28;19.60;99.90
6978;DHT22;3529;53.244;10.414;2022-07-06T12:35:55;19.70;99.90
6978;DHT22;3529;53.244;10.414;2022-07-06T12:38:27;20.00;99.90
6978;DHT22;3529;53.244;10.414;2022-07-06T12:40:53;20.30;99.90
6978;DHT22;3529;53.244;10.414;2022-07-06T12:43:38;20.60;99.90
6978;DHT22;3529;53.244;10.414;2022-07-06T12:46:26;21.20;99.90
6978;DHT22;3529;53.244;10.414;2022-07-06T12:48:54;21.50;99.90
6978;DHT22;3529;53.244;10.414;2022-07-06T12:51:20;21.70;99.90
6978;DHT22;3529;53.244;10.414;2022-07-06T12:53:46;21.90;99.90
6978;DHT22;3529;53.244;10.414;2022-07-06T12:56:13;21.90;99.90
6978;DHT22;3529;53.244;10.414;2022-07-06T12:58:39;21.80;99.90
6978;DHT22;3529;53.244;10.414;2022-07-06T13:01:05;21.60;99.90
6978;DHT22;3529;53.244;10.414;2022-07-06T13:03:40;21.60;99.90
6978;DHT22;3529;53.244;10.414;2022-07-06T13:06:06;21.80;99.90
6978;DHT22;3529;53.244;10.414;2022-07-06T13:08:31;21.90;99.90
6978;DHT22;3529;53.244;10.414;2022-07-06T13:10:57;22.00;99.90
6978;DHT22;3529;53.244;10.414;2022-07-06T13:13:23;22.50;99.90
6978;DHT22;3529;53.244;10.414;2022-07-06T13:15:48;22.50;99.90
6978;DHT22;3529;53.244;10.414;2022-07-06T13:18:16;22.40;99.90
6978;DHT22;3529;53.244;10.414;2022-07-06T13:20:44;22.50;99.90
6978;DHT22;3529;53.244;10.414;2022-07-06T13:23:09;22.50;99.90
6978;DHT22;3529;53.244;10.414;2022-07-06T13:25:35;22.60;99.90
6978;DHT22;3529;53.244;10.414;2022-07-06T13:28:00;22.70;99.90
6978;DHT22;3529;53.244;10.414;2022-07-06T13:30:26;23.10;99.90
6978;DHT22;3529;53.244;10.414;2022-07-06T13:32:52;23.00;99.90
6978;DHT22;3529;53.244;10.414;2022-07-06T13:35:17;22.70;99.90
6978;DHT22;3529;53.244;10.414;2022-07-06T13:37:43;22.30;99.90
6978;DHT22;3529;53.244;10.414;2022-07-06T13:40:12;22.20;99.90
6978;DHT22;3529;53.244;10.414;2022-07-06T13:42:38;23.00;99.90
6978;DHT22;3529;53.244;10.414;2022-07-06T13:45:04;22.50;99.90
6978;DHT22;3529;53.244;10.414;2022-07-06T13:47:29;23.00;99.90
6978;DHT22;3529;53.244;10.414;2022-07-06T13:49:55;22.10;99.90
6978;DHT22;3529;53.244;10.414;2022-07-06T13:52:21;21.80;99.90
6978;DHT22;3529;53.244;10.414;2022-07-06T13:54:46;21.60;99.90
6978;DHT22;3529;53.244;10.414;2022-07-06T13:57:12;21.40;99.90
6978;DHT22;3529;53.244;10.414;2022-07-06T13:59:37;21.20;99.90
6978;DHT22;3529;53.244;10.414;2022-07-06T14:02:03;21.10;99.90
6978;DHT22;3529;53.244;10.414;2022-07-06T14:04:29;21.30;99.90
6978;DHT22;3529;53.244;10.414;2022-07-06T14:06:54;21.40;99.90
6978;DHT22;3529;53.244;10.414;2022-07-06T14:09:20;21.50;99.90
6978;DHT22;3529;53.244;10.414;2022-07-06T14:11:46;21.40;99.90
6978;DHT22;3529;53.244;10.414;2022-07-06T14:14:12;21.40;99.90
6978;DHT22;3529;53.244;10.414;2022-07-06T14:16:38;21.40;99.90
6978;DHT22;3529;53.244;10.414;2022-07-06T14:19:05;21.70;99.90
6978;DHT22;3529;53.244;10.414;2022-07-06T14:21:31;22.10;99.90
6978;DHT22;3529;53.244;10.414;2022-07-06T14:23:56;22.60;99.90
6978;DHT22;3529;53.244;10.414;2022-07-06T14:26:22;22.80;99.90
6978;DHT22;3529;53.244;10.414;2022-07-06T14:28:48;23.00;99.90
6978;DHT22;3529;53.244;10.414;2022-07-06T14:31:13;22.80;99.90
6978;DHT22;3529;53.244;10.414;2022-07-06T14:33:39;22.40;99.90
6978;DHT22;3529;53.244;10.414;2022-07-06T14:36:05;22.00;99.90
6978;DHT22;3529;53.244;10.414;2022-07-06T14:38:30;21.60;99.90
6978;DHT22;3529;53.244;10.414;2022-07-06T14:40:56;21.40;99.90
6978;DHT22;3529;53.244;10.414;2022-07-06T14:43:22;21.10;99.90
6978;DHT22;3529;53.244;10.414;2022-07-06T14:45:47;21.00;99.90
6978;DHT22;3529;53.244;10.414;2022-07-06T14:48:13;20.90;99.90
6978;DHT22;3529;53.244;10.414;2022-07-06T14:50:39;21.20;99.90
6978;DHT22;3529;53.244;10.414;2022-07-06T14:53:05;21.70;99.90
6978;DHT22;3529;53.244;10.414;2022-07-06T14:55:31;22.10;99.90
6978;DHT22;3529;53.244;10.414;2022-07-06T14:57:57;22.20;99.90
6978;DHT22;3529;53.244;10.414;2022-07-06T15:00:22;22.10;99.90
6978;DHT22;3529;53.244;10.414;2022-07-06T15:02:48;21.90;99.90
6978;DHT22;3529;53.244;10.414;2022-07-06T15:05:13;21.60;99.90
6978;DHT22;3529;53.244;10.414;2022-07-06T15:07:40;21.40;99.90
6978;DHT22;3529;53.244;10.414;2022-07-06T15:10:06;21.30;99.90
6978;DHT22;3529;53.244;10.414;2022-07-06T15:12:32;21.20;99.90
6978;DHT22;3529;53.244;10.414;2022-07-06T15:14:58;21.20;99.90
6978;DHT22;3529;53.244;10.414;2022-07-06T15:17:23;21.20;99.90
6978;DHT22;3529;53.244;10.414;2022-07-06T15:19:49;21.10;99.90
6978;DHT22;3529;53.244;10.414;2022-07-06T15:22:15;20.90;99.90
6978;DHT22;3529;53.244;10.414;2022-07-06T15:24:40;20.80;99.90
6978;DHT22;3529;53.244;10.414;2022-07-06T15:27:07;20.60;99.90
6978;DHT22;3529;53.244;10.414;2022-07-06T15:29:33;20.60;99.90
6978;DHT22;3529;53.244;10.414;2022-07-06T15:31:59;20.80;99.90
6978;DHT22;3529;53.244;10.414;2022-07-06T15:34:24;20.80;99.90
6978;DHT22;3529;53.244;10.414;2022-07-06T15:36:50;20.80;99.90
6978;DHT22;3529;53.244;10.414;2022-07-06T15:39:16;20.70;99.90
6978;DHT22;3529;53.244;10.414;2022-07-06T15:41:42;20.70;99.90
6978;DHT22;3529;53.244;10.414;2022-07-06T15:44:08;20.70;99.90
6978;DHT22;3529;53.244;10.414;2022-07-06T15:46:34;20.90;99.90
6978;DHT22;3529;53.244;10.414;2022-07-06T15:49:00;21.20;99.90
6978;DHT22;3529;53.244;10.414;2022-07-06T15:51:25;21.50;99.90
6978;DHT22;3529;53.244;10.414;2022-07-06T15:53:51;21.90;99.90
6978;DHT22;3529;53.244;10.414;2022-07-06T15:56:17;22.00;99.90
6978;DHT22;3529;53.244;10.414;2022-07-06T15:58:43;21.90;99.90